Time;durP1;ratioP1;P1;durP2;ratioP2;P2;SDS_P1;SDS_P2;PMS_P1;PMS_P2;Temp;Humidity;BMP_temperature;BMP_pressure;BME280_temperature;BME280_humidity;BME280_pressure;Samples;Min_cycle;Max_cycle;Signal;HPM_P1;HPM_P2
2024/02/27 00:00:48;;;;;;;14.53;13.30;;;;;;;6.97;82.78;100465.91;5093095;28;20204;-76
2024/02/27 00:03:14;;;;;;;15.33;13.93;;;;;;;6.91;83.32;100462.50;5093407;28;20200;-74
2024/02/27 00:05:42;;;;;;;15.10;13.63;;;;;;;6.90;83.43;100453.00;5093171;28;20247;-76
2024/02/27 00:08:08;;;;;;;14.40;13.20;;;;;;;6.83;83.37;100461.66;5093857;28;20277;-73
2024/02/27 00:10:35;;;;;;;13.77;12.63;;;;;;;6.78;83.88;100456.50;5092893;28;20257;-74
2024/02/27 00:13:02;;;;;;;14.73;13.53;;;;;;;6.78;83.61;100453.91;5092773;28;20220;-76
2024/02/27 00:15:28;;;;;;;13.83;12.63;;;;;;;6.79;83.82;100455.59;5094118;28;20306;-77
2024/02/27 00:17:54;;;;;;;15.00;13.53;;;;;;;6.78;83.67;100459.09;5092591;28;20192;-76
2024/02/27 00:20:21;;;;;;;14.37;12.90;;;;;;;6.78;83.93;100451.31;5092487;28;20265;-76
2024/02/27 00:22:48;;;;;;;15.10;13.80;;;;;;;6.81;83.97;100443.50;5092044;28;20630;-76
2024/02/27 00:25:15;;;;;;;15.17;13.77;;;;;;;6.85;83.86;100452.13;5085086;28;20273;-76
2024/02/27 00:27:41;;;;;;;14.37;13.03;;;;;;;6.84;83.57;100447.78;5083533;28;20217;-77
2024/02/27 00:30:09;;;;;;;15.20;13.90;;;;;;;6.83;84.36;100436.56;5092514;28;20204;-76
2024/02/27 00:32:35;;;;;;;14.57;13.23;;;;;;;6.76;84.11;100437.47;5091230;28;20197;-77
2024/02/27 00:35:02;;;;;;;14.70;13.47;;;;;;;6.72;83.73;100434.03;5091002;28;20311;-76
2024/02/27 00:37:28;;;;;;;14.27;13.03;;;;;;;6.76;84.05;100427.94;5091264;28;20199;-73
2024/02/27 00:39:56;;;;;;;14.03;12.73;;;;;;;6.78;84.63;100442.63;5092018;28;20208;-76
2024/02/27 00:42:21;;;;;;;15.70;14.30;;;;;;;6.77;84.38;100436.59;5090830;28;20208;-76
2024/02/27 00:44:48;;;;;;;14.13;12.93;;;;;;;6.70;84.72;100432.28;5091927;28;20251;-77
2024/02/27 00:47:14;;;;;;;14.33;13.13;;;;;;;6.59;84.66;100431.47;5090867;28;20290;-76
2024/02/27 00:49:41;;;;;;;14.57;13.17;;;;;;;6.59;84.81;100421.94;5091298;28;20226;-77
2024/02/27 00:52:08;;;;;;;14.73;13.43;;;;;;;6.62;84.29;100419.38;5091909;28;20208;-76
2024/02/27 00:54:35;;;;;;;13.70;12.30;;;;;;;6.64;84.18;100427.13;5092072;28;20652;-76
2024/02/27 00:57:02;;;;;;;13.90;12.60;;;;;;;6.56;84.15;100430.63;5091478;28;20212;-76
2024/02/27 00:59:29;;;;;;;13.17;12.03;;;;;;;6.54;84.47;100431.47;5092375;28;20204;-76
2024/02/27 01:01:55;;;;;;;14.33;13.03;;;;;;;6.59;84.31;100434.06;5090665;28;20250;-76
2024/02/27 01:04:21;;;;;;;13.60;12.40;;;;;;;6.56;84.33;100433.22;5091057;28;20270;-75
2024/02/27 01:06:48;;;;;;;14.53;13.23;;;;;;;6.54;84.03;100436.66;5090374;28;20621;-75
2024/02/27 01:09:14;;;;;;;14.30;13.00;;;;;;;6.54;83.63;100444.44;5090764;28;20224;-74
2024/02/27 01:11:40;;;;;;;13.70;12.50;;;;;;;6.55;83.36;100443.56;5090590;28;20277;-75
2024/02/27 01:14:08;;;;;;;13.80;12.47;;;;;;;6.47;83.04;100460.88;5091522;28;20235;-76
2024/02/27 01:16:34;;;;;;;14.33;13.07;;;;;;;6.54;83.17;100463.47;5091569;28;20667;-75
2024/02/27 01:19:01;;;;;;;14.00;12.63;;;;;;;6.57;82.56;100475.56;5091012;28;20274;-76
2024/02/27 01:21:27;;;;;;;13.00;11.90;;;;;;;6.49;82.06;100485.94;5090665;28;20203;-76
2024/02/27 01:23:53;;;;;;;19.40;12.57;;;;;;;6.47;81.98;100492.84;5091437;28;20273;-75
2024/02/27 01:26:20;;;;;;;12.90;11.80;;;;;;;6.46;81.15;100508.41;5090530;28;20254;-75
2024/02/27 01:28:46;;;;;;;14.13;12.93;;;;;;;6.30;82.51;100507.56;5091274;28;20216;-76
2024/02/27 01:31:14;;;;;;;13.63;12.43;;;;;;;6.27;82.89;100495.47;5091139;28;20253;-75
2024/02/27 01:33:40;;;;;;;14.03;12.83;;;;;;;6.32;81.78;100498.94;5082965;28;20734;-77
2024/02/27 01:36:07;;;;;;;14.90;13.67;;;;;;;6.29;82.52;100509.28;5091257;28;20203;-76
2024/02/27 01:38:34;;;;;;;14.97;13.57;;;;;;;6.20;82.49;100514.47;5085398;28;20203;-76
2024/02/27 01:41:00;;;;;;;13.50;12.30;;;;;;;6.13;83.16;100486.84;5088592;28;20205;-75
2024/02/27 01:43:27;;;;;;;13.77;12.57;;;;;;;6.02;84.28;100481.63;5092485;28;20624;-76
2024/02/27 01:46:05;;;;;;;13.97;12.67;;;;;;;6.03;84.64;100462.66;5091605;28;20206;-75
2024/02/27 01:48:34;;;;;;;15.70;14.27;;;;;;;6.00;85.17;100441.06;5084984;28;20294;-75
2024/02/27 01:51:01;;;;;;;14.40;13.17;;;;;;;5.87;85.70;100428.06;5082753;28;20576;-75
2024/02/27 01:53:28;;;;;;;14.77;13.37;;;;;;;5.84;85.90;100422.03;5090579;28;20200;-76
2024/02/27 01:55:54;;;;;;;13.70;12.53;;;;;;;5.90;84.65;100422.88;5091098;28;20215;-76
2024/02/27 01:58:21;;;;;;;14.17;12.83;;;;;;;5.99;84.53;100440.19;5091468;28;20196;-75
2024/02/27 02:00:48;;;;;;;14.90;13.37;;;;;;;6.01;84.03;100453.16;5091154;28;20197;-77
2024/02/27 02:03:16;;;;;;;13.70;12.50;;;;;;;5.98;83.31;100466.97;5091005;28;20225;-76
2024/02/27 02:05:44;;;;;;;12.80;11.70;;;;;;;6.04;82.90;100474.72;5090794;28;20204;-76
2024/02/27 02:08:11;;;;;;;13.00;11.90;;;;;;;6.03;82.75;100485.97;5088441;28;20252;-75
2024/02/27 02:10:37;;;;;;;13.57;12.27;;;;;;;6.07;82.02;100500.66;5084405;28;20200;-74
2024/02/27 02:13:04;;;;;;;11.90;10.87;;;;;;;6.12;81.92;100524.81;5090657;28;20210;-76
2024/02/27 02:15:30;;;;;;;11.77;10.67;;;;;;;6.08;81.15;100561.09;5090354;28;20220;-76
2024/02/27 02:17:56;;;;;;;12.57;11.37;;;;;;;6.13;80.28;100580.13;5089825;28;20204;-76
2024/02/27 02:20:24;;;;;;;13.20;11.90;;;;;;;6.08;80.38;100590.47;5090731;28;20207;-76
2024/02/27 02:22:50;;;;;;;12.70;11.37;;;;;;;6.07;79.48;100617.25;5090889;28;20201;-76
2024/02/27 02:25:17;;;;;;;11.87;10.80;;;;;;;6.04;79.86;100622.44;5090435;28;20224;-76
2024/02/27 02:27:43;;;;;;;11.73;10.73;;;;;;;6.00;79.62;100637.97;5089609;28;20782;-76
2024/02/27 02:30:11;;;;;;;11.83;10.83;;;;;;;6.00;79.06;100648.34;5090215;28;20204;-76
2024/02/27 02:32:46;;;;;;;12.60;11.50;;;;;;;5.87;79.63;100657.78;5090239;28;20200;-74
2024/02/27 02:35:12;;;;;;;12.10;10.90;;;;;;;5.89;79.53;100663.81;5089284;28;20261;-77
2024/02/27 02:37:40;;;;;;;12.63;11.53;;;;;;;5.90;79.66;100668.97;5088618;28;20197;-76
2024/02/27 02:40:07;;;;;;;12.80;11.60;;;;;;;5.90;79.87;100661.22;5089638;28;20203;-75
2024/02/27 02:42:34;;;;;;;11.90;10.73;;;;;;;5.90;80.09;100663.81;5089479;28;20196;-77
2024/02/27 02:45:00;;;;;;;12.80;11.70;;;;;;;5.86;80.51;100668.97;5090238;28;20273;-76
2024/02/27 02:47:27;;;;;;;12.80;11.47;;;;;;;5.85;80.21;100667.25;5089608;28;20200;-75
2024/02/27 02:49:53;;;;;;;11.77;10.67;;;;;;;5.83;80.54;100666.34;5089985;28;20670;-76
2024/02/27 02:52:20;;;;;;;12.90;11.60;;;;;;;5.77;79.85;100664.63;5087521;28;20212;-75
2024/02/27 02:54:47;;;;;;;12.33;11.13;;;;;;;5.77;79.85;100670.69;5084918;28;20250;-75
2024/02/27 02:57:13;;;;;;;13.43;12.23;;;;;;;5.69;80.50;100669.78;5089105;28;20212;-75
2024/02/27 02:59:40;;;;;;;13.03;11.90;;;;;;;5.62;80.49;100660.25;5091191;28;20260;-76
2024/02/27 03:02:06;;;;;;;13.43;12.23;;;;;;;5.56;82.13;100652.44;5090060;28;20594;-77
2024/02/27 03:04:33;;;;;;;12.57;11.43;;;;;;;5.39;82.71;100621.28;5090464;28;20823;-74
2024/02/27 03:06:59;;;;;;;13.33;12.13;;;;;;;5.32;83.90;100607.44;5090220;28;20214;-76
2024/02/27 03:09:25;;;;;;;13.37;11.97;;;;;;;5.41;83.30;100582.47;5082725;28;20242;-75
2024/02/27 03:11:53;;;;;;;13.53;12.27;;;;;;;5.41;82.98;100580.75;5088924;28;20204;-75
2024/02/27 03:14:19;;;;;;;13.47;12.20;;;;;;;5.44;83.37;100585.06;5089579;28;20239;-76
2024/02/27 03:16:47;;;;;;;13.70;12.37;;;;;;;5.42;82.94;100595.41;5090060;28;20200;-75
2024/02/27 03:19:13;;;;;;;13.93;12.63;;;;;;;5.41;83.08;100598.00;5090054;28;20262;-75
2024/02/27 03:21:40;;;;;;;14.63;13.23;;;;;;;5.45;82.69;100594.56;5089366;28;20208;-75
2024/02/27 03:24:07;;;;;;;14.03;12.73;;;;;;;5.34;84.15;100576.41;5090014;28;20224;-75
2024/02/27 03:26:33;;;;;;;13.47;12.37;;;;;;;5.32;84.32;100557.41;5089626;28;20203;-76
2024/02/27 03:29:01;;;;;;;14.03;12.73;;;;;;;5.27;84.94;100541.00;5090564;28;20228;-76
2024/02/27 03:31:27;;;;;;;14.87;13.47;;;;;;;5.28;85.41;100520.28;5092733;28;20690;-74
2024/02/27 03:33:53;;;;;;;14.70;13.37;;;;;;;5.37;84.09;100528.09;5093419;28;20282;-75
2024/02/27 03:36:20;;;;;;;14.33;12.83;;;;;;;5.42;83.65;100553.16;5094427;28;20256;-75
2024/02/27 03:38:46;;;;;;;15.37;13.87;;;;;;;5.39;83.15;100577.28;5093406;28;20196;-75
2024/02/27 03:41:13;;;;;;;15.70;14.20;;;;;;;5.56;82.99;100577.34;5093331;28;20280;-75
2024/02/27 03:43:40;;;;;;;15.47;13.87;;;;;;;5.37;84.23;100573.81;5093236;28;20302;-75
2024/02/27 03:46:08;;;;;;;15.87;14.07;;;;;;;5.37;84.23;100564.34;5091883;28;20259;-76
2024/02/27 03:48:35;;;;;;;17.50;14.47;;;;;;;5.34;84.43;100571.22;5094122;28;20249;-76
2024/02/27 03:51:01;;;;;;;16.07;14.57;;;;;;;5.36;83.93;100557.44;5093137;28;20643;-76
2024/02/27 03:53:29;;;;;;;21.00;16.10;;;;;;;5.33;84.28;100567.78;5093706;28;20264;-76
2024/02/27 03:55:55;;;;;;;18.07;16.17;;;;;;;5.34;83.90;100566.91;5093413;28;20204;-75
2024/02/27 03:58:22;;;;;;;21.47;16.90;;;;;;;5.30;84.05;100565.16;5092710;28;20233;-77
2024/02/27 04:00:48;;;;;;;18.33;16.17;;;;;;;5.25;84.54;100566.00;5093739;28;20253;-76
2024/02/27 04:03:16;;;;;;;17.97;16.10;;;;;;;5.17;84.44;100572.03;5093378;28;20208;-75
2024/02/27 04:05:42;;;;;;;16.60;14.87;;;;;;;5.14;84.86;100558.19;5092735;28;20208;-73
2024/02/27 04:08:09;;;;;;;18.40;16.47;;;;;;;5.12;85.38;100540.06;5093022;28;20656;-74
2024/02/27 04:10:35;;;;;;;20.07;16.27;;;;;;;5.09;85.29;100534.88;5093063;28;20265;-75
2024/02/27 04:13:02;;;;;;;17.80;15.57;;;;;;;5.08;86.90;100520.22;5093223;28;20262;-76
2024/02/27 04:15:28;;;;;;;18.90;15.60;;;;;;;5.03;87.07;100514.13;5093812;28;20246;-75
2024/02/27 04:17:55;;;;;;;20.87;17.07;;;;;;;4.97;87.58;100496.00;5091953;28;20210;-76
2024/02/27 04:20:23;;;;;;;18.10;16.20;;;;;;;5.02;87.26;100496.06;5092743;28;20204;-75
2024/02/27 04:22:49;;;;;;;18.73;16.67;;;;;;;5.00;87.70;100493.44;5092325;28;20274;-77
2024/02/27 04:25:16;;;;;;;17.70;15.83;;;;;;;5.05;87.49;100493.47;5092264;28;20281;-76
2024/02/27 04:27:42;;;;;;;17.37;14.97;;;;;;;5.00;87.03;100508.09;5092662;28;20200;-74
2024/02/27 04:30:10;;;;;;;20.60;16.43;;;;;;;4.97;87.25;100515.00;5092718;28;20289;-74
2024/02/27 04:32:36;;;;;;;17.53;15.70;;;;;;;4.98;87.37;100515.84;5092408;28;20490;-75
2024/02/27 04:35:05;;;;;;;17.57;15.77;;;;;;;5.02;87.15;100514.16;5084769;28;20235;-76
2024/02/27 04:37:32;;;;;;;17.53;15.63;;;;;;;5.04;86.95;100510.72;5092230;28;20695;-76
2024/02/27 04:39:59;;;;;;;18.50;16.17;;;;;;;5.04;87.59;100512.44;5093072;28;20259;-76
2024/02/27 04:42:25;;;;;;;20.67;16.53;;;;;;;5.10;86.85;100517.63;5091824;28;20741;-75
2024/02/27 04:44:52;;;;;;;20.40;15.87;;;;;;;5.09;87.18;100514.16;5092450;28;20606;-75
2024/02/27 04:47:18;;;;;;;17.80;16.03;;;;;;;5.12;87.04;100515.94;5091480;28;20677;-75
2024/02/27 04:49:44;;;;;;;19.23;16.17;;;;;;;5.15;86.84;100521.09;5091939;28;20218;-75
2024/02/27 04:52:11;;;;;;;17.93;16.00;;;;;;;5.08;86.88;100533.16;5092136;28;20230;-77
2024/02/27 04:54:38;;;;;;;20.87;15.83;;;;;;;5.14;87.23;100537.50;5091366;28;20265;-76
2024/02/27 04:57:05;;;;;;;17.03;15.27;;;;;;;5.17;86.95;100532.31;5091314;28;20208;-77
2024/02/27 04:59:32;;;;;;;19.57;16.50;;;;;;;5.04;87.19;100554.69;5091352;28;20202;-76
2024/02/27 05:01:58;;;;;;;17.07;15.00;;;;;;;5.11;87.60;100537.47;5090200;28;20276;-77
2024/02/27 05:04:24;;;;;;;17.53;15.83;;;;;;;5.20;87.14;100539.25;5091062;28;20278;-76
2024/02/27 05:06:51;;;;;;;19.10;15.63;;;;;;;5.25;87.06;100551.34;5091429;28;20250;-76
2024/02/27 05:09:17;;;;;;;18.33;16.43;;;;;;;5.23;87.60;100542.69;5091355;28;20226;-74
2024/02/27 05:11:45;;;;;;;18.30;15.60;;;;;;;5.27;87.33;100553.94;5091270;28;20269;-76
2024/02/27 05:14:11;;;;;;;18.57;15.00;;;;;;;5.33;86.56;100564.31;5090865;28;20239;-77
2024/02/27 05:16:38;;;;;;;19.43;16.30;;;;;;;5.31;86.37;100576.38;5090633;28;20196;-76
2024/02/27 05:19:04;;;;;;;17.87;15.93;;;;;;;5.25;87.79;100571.16;5091029;28;20666;-77
2024/02/27 05:21:31;;;;;;;18.43;16.40;;;;;;;5.29;86.71;100565.16;5092134;28;20230;-77
2024/02/27 05:23:57;;;;;;;19.40;16.47;;;;;;;5.49;86.69;100562.66;5092151;28;20227;-76
2024/02/27 05:26:24;;;;;;;17.47;15.57;;;;;;;5.33;86.43;100572.97;5090221;28;20210;-76
2024/02/27 05:28:52;;;;;;;19.23;16.07;;;;;;;5.36;85.81;100577.28;5090520;28;20238;-76
2024/02/27 05:31:24;;;;;;;21.40;15.83;;;;;;;5.28;86.55;100585.00;5090305;28;20206;-78
2024/02/27 05:33:51;;;;;;;19.20;15.67;;;;;;;5.37;85.53;100579.88;5091772;28;20216;-76
2024/02/27 05:36:17;;;;;;;18.30;16.40;;;;;;;5.22;86.82;100573.75;5090409;28;20208;-77
2024/02/27 05:38:44;;;;;;;19.00;16.43;;;;;;;5.24;87.57;100556.53;5090016;28;20196;-77
2024/02/27 05:41:10;;;;;;;17.97;16.07;;;;;;;5.22;87.85;100550.47;5093240;28;20208;-77
2024/02/27 05:43:37;;;;;;;19.50;16.07;;;;;;;5.29;88.17;100547.91;5092799;28;20236;-78
2024/02/27 05:46:05;;;;;;;18.87;16.23;;;;;;;5.32;87.97;100544.47;5093641;28;20215;-77
2024/02/27 05:48:32;;;;;;;17.80;15.97;;;;;;;5.33;88.03;100541.91;5093224;28;20203;-78
2024/02/27 05:50:59;;;;;;;18.67;16.17;;;;;;;5.34;87.69;100551.38;5094064;28;20230;-76
2024/02/27 05:53:26;;;;;;;21.40;16.00;;;;;;;5.38;87.63;100562.63;5093106;28;20724;-77
2024/02/27 05:55:52;;;;;;;18.93;15.47;;;;;;;5.37;87.42;100559.16;5087659;28;20651;-79
2024/02/27 05:58:19;;;;;;;19.73;15.90;;;;;;;5.42;86.65;100568.69;5090180;28;20196;-78
2024/02/27 06:00:46;;;;;;;18.17;16.37;;;;;;;5.38;87.02;100578.16;5093478;28;20203;-78
2024/02/27 06:03:13;;;;;;;18.10;15.80;;;;;;;5.39;87.05;100577.28;5093751;28;20204;-78
2024/02/27 06:05:40;;;;;;;17.80;15.90;;;;;;;5.40;86.76;100585.94;5085118;28;20272;-77
2024/02/27 06:08:06;;;;;;;18.73;15.97;;;;;;;5.37;86.49;100599.69;5092819;28;20200;-78
2024/02/27 06:10:33;;;;;;;18.57;16.67;;;;;;;5.31;87.31;100604.84;5092312;28;20608;-79
2024/02/27 06:12:59;;;;;;;16.80;15.07;;;;;;;5.35;86.74;100611.75;5091961;28;20774;-77
2024/02/27 06:15:25;;;;;;;17.60;15.80;;;;;;;5.41;86.60;100611.81;5092221;28;20281;-77
2024/02/27 06:17:52;;;;;;;16.87;15.17;;;;;;;5.61;85.79;100621.38;5091869;28;20211;-77
2024/02/27 06:23:00;;;;;;;17.13;14.83;;;;;;;5.64;86.08;100636.94;5092979;28;20293;-77
2024/02/27 06:25:26;;;;;;;16.37;14.00;;;;;;;5.71;86.25;100639.56;5091490;28;20283;-75
2024/02/27 06:27:53;;;;;;;16.77;14.90;;;;;;;5.75;85.63;100656.84;5092202;28;20200;-85
2024/02/27 06:30:19;;;;;;;19.93;13.87;;;;;;;5.74;84.52;100681.00;5095042;28;20223;-75
2024/02/27 06:32:45;;;;;;;15.83;14.23;;;;;;;5.72;84.14;100690.50;5091344;28;20246;-78
2024/02/27 06:35:12;;;;;;;17.00;14.77;;;;;;;5.57;84.51;100704.25;5091292;28;20227;-77
2024/02/27 06:37:41;;;;;;;17.60;13.90;;;;;;;5.50;85.68;100699.00;5091295;28;20212;-77
2024/02/27 06:40:08;;;;;;;19.50;14.23;;;;;;;5.70;85.13;100693.94;5091775;28;20204;-78
2024/02/27 06:42:36;;;;;;;16.53;14.77;;;;;;;5.47;85.91;100698.97;5091220;28;20204;-76
2024/02/27 06:45:03;;;;;;;16.10;14.50;;;;;;;5.49;86.72;100686.91;5091794;28;20264;-79
2024/02/27 06:47:29;;;;;;;15.80;14.10;;;;;;;5.50;86.16;100686.94;5091158;28;20208;-77
2024/02/27 06:49:58;;;;;;;20.83;15.33;;;;;;;5.47;86.74;100678.28;5091718;28;20280;-78
2024/02/27 06:52:25;;;;;;;14.90;13.40;;;;;;;5.50;86.63;100676.56;5091854;28;20288;-78
2024/02/27 06:54:52;;;;;;;15.63;12.97;;;;;;;5.51;86.64;100683.50;5092003;28;20293;-78
2024/02/27 06:57:19;;;;;;;18.37;14.73;;;;;;;5.46;86.87;100689.50;5091345;28;20211;-77
2024/02/27 06:59:45;;;;;;;19.00;14.63;;;;;;;5.51;86.78;100675.72;5092503;28;20213;-79
2024/02/27 07:02:12;;;;;;;16.97;14.60;;;;;;;5.54;86.29;100691.28;5091637;28;20274;-78
2024/02/27 07:04:38;;;;;;;16.00;14.40;;;;;;;5.66;85.87;100694.78;5091183;28;20278;-78
2024/02/27 07:07:05;;;;;;;15.57;13.90;;;;;;;5.83;84.75;100711.28;5095116;28;20206;-78
2024/02/27 07:09:32;;;;;;;15.33;13.70;;;;;;;5.72;85.12;100724.16;5094985;28;20599;-78
2024/02/27 07:12:01;;;;;;;14.60;13.07;;;;;;;5.89;84.10;100731.19;5089411;28;20223;-77
2024/02/27 07:14:29;;;;;;;15.90;14.20;;;;;;;5.67;84.49;100745.72;5092163;28;20235;-78
2024/02/27 07:16:56;;;;;;;15.57;13.97;;;;;;;5.62;85.39;100743.09;5094527;28;20212;-77
2024/02/27 07:19:23;;;;;;;22.97;13.90;;;;;;;5.60;86.11;100729.28;5094932;28;20215;-77
2024/02/27 07:21:49;;;;;;;20.13;14.93;;;;;;;5.58;86.73;100713.72;5094456;28;20201;-78
2024/02/27 07:24:16;;;;;;;16.00;14.30;;;;;;;5.65;86.41;100706.88;5094964;28;20710;-78
2024/02/27 07:26:43;;;;;;;15.73;14.03;;;;;;;5.64;86.38;100707.72;5094051;28;20207;-77
2024/02/27 07:29:13;;;;;;;16.20;14.37;;;;;;;5.66;86.68;100708.59;5095421;28;20645;-77
2024/02/27 07:31:39;;;;;;;15.97;13.20;;;;;;;5.73;85.73;100707.78;5095302;28;20710;-78
2024/02/27 07:34:06;;;;;;;15.97;13.43;;;;;;;5.76;86.07;100704.34;5095198;28;20231;-78
2024/02/27 07:36:32;;;;;;;15.20;13.70;;;;;;;5.75;85.57;100724.19;5094603;28;20286;-78
2024/02/27 07:38:59;;;;;;;15.37;13.67;;;;;;;5.71;86.11;100721.59;5095215;28;20204;-78
2024/02/27 07:41:25;;;;;;;15.27;13.67;;;;;;;5.75;86.09;100725.94;5094280;28;20208;-77
2024/02/27 07:43:53;;;;;;;15.10;13.50;;;;;;;5.75;86.18;100734.56;5094965;28;20212;-77
2024/02/27 07:46:21;;;;;;;16.33;14.67;;;;;;;5.74;86.09;100726.78;5094872;28;20291;-77
2024/02/27 07:48:47;;;;;;;17.20;13.17;;;;;;;5.78;85.32;100731.09;5094806;28;20200;-77
2024/02/27 07:51:26;;;;;;;15.00;13.47;;;;;;;5.84;86.11;100748.41;5095119;28;20702;-77
2024/02/27 07:53:52;;;;;;;14.77;12.90;;;;;;;5.88;85.10;100750.16;5095313;28;20242;-76
2024/02/27 07:56:19;;;;;;;15.87;13.53;;;;;;;5.89;85.22;100762.28;5094997;28;20574;-77
2024/02/27 07:58:45;;;;;;;14.77;13.07;;;;;;;5.91;85.11;100761.41;5094558;28;20203;-78
2024/02/27 08:01:11;;;;;;;15.07;13.27;;;;;;;5.95;85.26;100757.16;5088155;28;20228;-77
2024/02/27 08:03:39;;;;;;;15.97;14.03;;;;;;;5.96;85.01;100761.47;5093354;28;20231;-78
2024/02/27 08:06:06;;;;;;;14.23;12.83;;;;;;;5.99;84.15;100769.25;5094496;28;20617;-77
2024/02/27 08:08:32;;;;;;;15.93;13.40;;;;;;;5.99;84.29;100777.03;5095009;28;20204;-77
2024/02/27 08:10:59;;;;;;;13.23;11.93;;;;;;;6.00;84.15;100791.72;5094197;28;20219;-77
2024/02/27 08:13:25;;;;;;;14.27;12.87;;;;;;;6.02;84.80;100796.91;5094321;28;20285;-77
2024/02/27 08:15:52;;;;;;;13.87;12.47;;;;;;;6.06;84.36;100794.31;5093420;28;20197;-77
2024/02/27 08:18:18;;;;;;;14.10;12.60;;;;;;;6.10;84.09;100796.06;5086700;28;20205;-78
2024/02/27 08:20:47;;;;;;;13.50;12.03;;;;;;;6.12;83.88;100809.03;5085312;28;20741;-77
2024/02/27 08:23:14;;;;;;;13.37;12.07;;;;;;;6.16;83.56;100819.47;5094784;28;20200;-77
2024/02/27 08:25:40;;;;;;;13.93;12.53;;;;;;;6.19;83.80;100818.59;5093425;28;20224;-76
2024/02/27 08:28:07;;;;;;;13.73;12.40;;;;;;;6.23;83.28;100816.91;5093533;28;20204;-75
2024/02/27 08:30:33;;;;;;;15.47;13.67;;;;;;;6.26;83.38;100828.13;5093562;28;20228;-78
2024/02/27 08:33:00;;;;;;;14.37;12.87;;;;;;;6.29;82.53;100840.25;5089877;28;20205;-77
2024/02/27 08:35:26;;;;;;;13.97;12.57;;;;;;;6.20;82.29;100851.41;5090526;28;20228;-77
2024/02/27 08:37:54;;;;;;;14.30;12.80;;;;;;;6.18;82.18;100854.88;5093361;28;20613;-77
2024/02/27 08:40:20;;;;;;;14.27;12.87;;;;;;;6.12;82.83;100856.56;5093353;28;20200;-78
2024/02/27 08:42:47;;;;;;;16.23;12.83;;;;;;;6.10;83.33;100852.22;5093468;28;20215;-77
2024/02/27 08:45:13;;;;;;;13.97;12.57;;;;;;;6.15;83.48;100851.41;5095625;28;20274;-80
2024/02/27 08:47:40;;;;;;;14.13;12.43;;;;;;;6.19;83.48;100839.34;5095524;28;20258;-80
2024/02/27 08:50:07;;;;;;;19.03;12.53;;;;;;;6.22;83.74;100835.88;5095010;28;20226;-77
2024/02/27 08:52:33;;;;;;;14.33;12.83;;;;;;;6.20;83.71;100845.38;5096449;28;20211;-79
2024/02/27 08:55:01;;;;;;;14.53;13.07;;;;;;;6.18;82.83;100854.88;5097584;28;20225;-77
2024/02/27 08:57:27;;;;;;;14.53;13.03;;;;;;;6.20;83.25;100861.78;5095130;28;20211;-78
2024/02/27 08:59:54;;;;;;;14.83;13.30;;;;;;;6.24;82.57;100855.75;5087859;28;20253;-77
2024/02/27 09:02:20;;;;;;;14.03;12.63;;;;;;;6.28;82.45;100860.13;5095146;28;20250;-77
2024/02/27 09:04:46;;;;;;;19.27;12.30;;;;;;;6.29;82.78;100869.63;5094552;28;20232;-78
2024/02/27 09:07:13;;;;;;;13.83;12.53;;;;;;;6.33;82.70;100881.75;5096621;28;20208;-78
2024/02/27 09:09:39;;;;;;;13.87;12.30;;;;;;;6.32;82.16;100879.13;5095515;28;20277;-78
2024/02/27 09:12:09;;;;;;;14.20;12.63;;;;;;;6.33;82.31;100880.88;5094162;28;20246;-76
2024/02/27 09:14:35;;;;;;;13.90;12.50;;;;;;;6.41;81.81;100894.75;5093670;28;20372;-79
2024/02/27 09:17:02;;;;;;;13.00;11.43;;;;;;;6.35;81.63;100895.59;5094198;28;20250;-78
2024/02/27 09:19:29;;;;;;;14.50;13.00;;;;;;;6.32;81.81;100900.78;5094914;28;20204;-77
2024/02/27 09:21:56;;;;;;;14.63;13.13;;;;;;;6.35;82.58;100893.00;5096377;28;20204;-80
2024/02/27 09:24:22;;;;;;;14.50;13.00;;;;;;;6.42;82.22;100893.91;5094508;28;20246;-78
2024/02/27 09:26:49;;;;;;;15.17;13.57;;;;;;;6.42;81.89;100895.63;5093947;28;20207;-78
2024/02/27 09:29:16;;;;;;;15.57;13.40;;;;;;;6.49;81.92;100906.03;5095757;28;20204;-79
2024/02/27 09:31:46;;;;;;;14.77;13.10;;;;;;;6.50;81.79;100906.91;5096129;28;20705;-80
2024/02/27 09:34:13;;;;;;;13.13;11.83;;;;;;;6.49;81.59;100918.13;5094179;28;20234;-78
2024/02/27 09:36:39;;;;;;;13.57;12.27;;;;;;;6.47;81.24;100918.13;5095794;28;20204;-79
2024/02/27 09:39:07;;;;;;;14.47;12.77;;;;;;;6.48;81.93;100926.75;5087837;28;20257;-78
2024/02/27 09:41:47;;;;;;;15.10;13.70;;;;;;;6.52;81.68;100918.13;5093623;28;20196;-77
2024/02/27 09:44:13;;;;;;;17.77;12.53;;;;;;;6.60;81.49;100921.66;5094461;28;20231;-77
2024/02/27 09:46:42;;;;;;;14.37;12.37;;;;;;;6.68;81.66;100924.28;5093705;28;20204;-76
2024/02/27 09:49:10;;;;;;;13.73;12.37;;;;;;;6.72;80.97;100929.50;5095082;28;20254;-79
2024/02/27 09:51:39;;;;;;;14.07;12.57;;;;;;;6.70;81.02;100941.59;5096699;28;20700;-79
2024/02/27 09:54:06;;;;;;;14.33;12.83;;;;;;;6.68;80.29;100956.28;5091291;28;20274;-79
2024/02/27 09:56:33;;;;;;;15.47;13.87;;;;;;;6.71;79.89;100952.84;5092410;28;20727;-80
2024/02/27 09:59:08;;;;;;;14.67;12.97;;;;;;;6.66;80.56;100945.03;5096753;28;20249;-80
2024/02/27 10:01:36;;;;;;;16.10;13.80;;;;;;;6.72;80.75;100954.59;5097959;28;20211;-81
2024/02/27 10:04:05;;;;;;;16.13;13.53;;;;;;;6.78;80.59;100953.72;5093878;28;20277;-81
2024/02/27 10:06:43;;;;;;;15.57;13.83;;;;;;;6.80;80.41;100960.69;5100926;28;20200;-80
2024/02/27 10:09:37;;;;;;;16.83;11.80;;;;;;;6.84;81.38;100931.28;5099275;28;20230;-82
2024/02/27 10:12:40;;;;;;;14.03;12.53;;;;;;;6.90;80.08;100939.09;5081805;28;20269;-82
2024/02/27 10:15:11;;;;;;;15.67;13.37;;;;;;;6.94;80.06;100951.22;5097320;28;20251;-81
2024/02/27 10:17:46;;;;;;;13.23;11.93;;;;;;;6.99;80.01;100955.56;5100541;28;20207;-82
2024/02/27 10:20:17;;;;;;;13.27;12.07;;;;;;;7.10;79.03;100969.47;5102041;28;20202;-79
2024/02/27 10:22:43;;;;;;;14.17;12.73;;;;;;;7.12;78.45;100985.91;5095373;28;20209;-80
2024/02/27 10:25:14;;;;;;;14.80;13.17;;;;;;;7.01;79.25;101004.00;5102057;28;20224;-79
2024/02/27 10:27:43;;;;;;;15.53;13.33;;;;;;;7.07;78.92;100998.00;5100473;28;20200;-81
2024/02/27 10:30:15;;;;;;;14.07;12.67;;;;;;;7.01;78.90;100998.81;5104218;28;20224;-82
2024/02/27 10:32:42;;;;;;;13.17;11.87;;;;;;;7.04;78.47;101006.63;5103499;28;20210;-80
2024/02/27 10:35:09;;;;;;;13.50;12.10;;;;;;;7.06;78.75;101017.03;5103808;28;20228;-79
2024/02/27 10:37:37;;;;;;;12.63;11.43;;;;;;;7.10;78.96;101011.84;5100259;28;20221;-82
2024/02/27 10:40:07;;;;;;;13.17;11.87;;;;;;;7.21;77.64;101014.47;5102657;28;20204;-82
2024/02/27 10:42:33;;;;;;;13.73;12.43;;;;;;;7.26;77.26;101033.56;5104614;28;20204;-82
2024/02/27 10:45:59;;;;;;;14.00;12.67;;;;;;;7.23;77.92;101040.47;5102445;28;20627;-83
2024/02/27 10:48:33;;;;;;;13.43;12.03;;;;;;;7.21;78.08;101034.41;5037881;28;20619;-82
2024/02/27 10:51:23;;;;;;;14.60;13.17;;;;;;;7.21;77.88;101029.19;5031166;28;20226;-82
2024/02/27 10:53:52;;;;;;;13.33;12.07;;;;;;;7.20;77.81;101033.53;5091591;28;20254;-82
2024/02/27 10:56:21;;;;;;;14.30;13.00;;;;;;;7.28;77.79;101033.56;5099814;28;20229;-83
2024/02/27 10:59:04;;;;;;;14.03;12.60;;;;;;;7.25;77.60;101041.34;5100708;28;20219;-83
2024/02/27 11:01:32;;;;;;;12.57;11.50;;;;;;;7.30;77.22;101037.03;5097300;28;20200;-82
2024/02/27 11:04:03;;;;;;;14.43;13.07;;;;;;;7.31;77.63;101050.03;5102901;28;20228;-82
2024/02/27 11:06:30;;;;;;;12.37;11.17;;;;;;;7.35;77.17;101045.69;5101051;28;20204;-82
2024/02/27 11:09:03;;;;;;;13.80;12.40;;;;;;;7.36;77.80;101060.44;5102079;28;20492;-84
2024/02/27 11:25:14;;;;;;;14.70;13.33;;;;;;;7.40;76.70;101087.28;5270799;22;20248;-80
2024/02/27 11:27:41;;;;;;;13.07;11.77;;;;;;;7.34;77.25;101086.41;5095956;28;20209;-82
2024/02/27 11:30:09;;;;;;;13.50;12.10;;;;;;;7.38;76.86;101087.28;5091436;28;20281;-81
2024/02/27 11:32:36;;;;;;;12.77;11.57;;;;;;;7.39;76.75;101089.00;5097104;28;20185;-82
2024/02/27 11:35:04;;;;;;;14.27;12.97;;;;;;;7.62;75.53;101107.28;5087116;28;20257;-80